Time;durP1;ratioP1;P1;durP2;ratioP2;P2;SDS_P1;SDS_P2;PMS_P1;PMS_P2;Temp;Humidity;BMP_temperature;BMP_pressure;BME280_temperature;BME280_humidity;BME280_pressure;Samples;Min_cycle;Max_cycle;Signal;HPM_P1;HPM_P2
2022/06/08 00:00:56;;;;;;;;;;;;;;;;;;4972817;28;19922;-64
2022/06/08 00:03:21;;;;;;;;;;;;;;;;;;4969741;28;19917;-64
2022/06/08 00:05:46;;;;;;;;;;;;;;;;;;4968272;28;20513;-64
2022/06/08 00:08:12;;;;;;;;;;;;;;;;;;4975479;28;19928;-63
2022/06/08 00:10:37;;;;;;;;;;;;;;;;;;4969463;28;19976;-64
2022/06/08 00:13:02;;;;;;;;;;;;;;;;;;4974881;28;19983;-63
2022/06/08 00:15:27;;;;;;;;;;;;;;;;;;4969531;28;19921;-64
2022/06/08 00:17:53;;;;;;;;;;;;;;;;;;4956503;28;19972;-64
2022/06/08 00:20:18;;;;;;;;;;;;;;;;;;4973429;28;19918;-64
2022/06/08 00:22:43;;;;;;;;;;;;;;;;;;4970659;28;19913;-64
2022/06/08 00:25:08;;;;;;;;;;;;;;;;;;4976318;28;19928;-63
2022/06/08 00:27:33;;;;;;;;;;;;;;;;;;4970277;28;19922;-63
2022/06/08 00:29:59;;;;;;;;;;;;;;;;;;4968089;28;19921;-63
2022/06/08 00:32:24;;;;;;;;;;;;;;;;;;4961785;28;20053;-64
2022/06/08 00:34:49;;;;;;;;;;;;;;;;;;4968818;28;20005;-63
2022/06/08 00:37:14;;;;;;;;;;;;;;;;;;4973255;28;19952;-63
2022/06/08 00:39:40;;;;;;;;;;;;;;;;;;4967177;28;19958;-63
2022/06/08 00:42:05;;;;;;;;;;;;;;;;;;4941917;28;19918;-63
2022/06/08 00:44:30;;;;;;;;;;;;;;;;;;4946965;28;20017;-63
2022/06/08 00:46:55;;;;;;;;;;;;;;;;;;4955305;28;19926;-64
2022/06/08 00:49:21;;;;;;;;;;;;;;;;;;4974659;28;19914;-63
2022/06/08 00:51:46;;;;;;;;;;;;;;;;;;4970359;28;20021;-63
2022/06/08 00:54:11;;;;;;;;;;;;;;;;;;4956435;28;20367;-63
2022/06/08 00:56:37;;;;;;;;;;;;;;;;;;4958248;28;19914;-64
2022/06/08 00:59:02;;;;;;;;;;;;;;;;;;4966929;28;20326;-64
2022/06/08 01:01:27;;;;;;;;;;;;;;;;;;4972229;28;19917;-64
2022/06/08 01:03:53;;;;;;;;;;;;;;;;;;4967386;28;19918;-64
2022/06/08 01:06:18;;;;;;;;;;;;;;;;;;4952543;28;20381;-64
2022/06/08 01:08:43;;;;;;;;;;;;;;;;;;4974203;28;20512;-64
2022/06/08 01:11:11;;;;;;;;;;;;;;;;;;4955964;28;20380;-64
2022/06/08 01:13:37;;;;;;;;;;;;;;;;;;4962425;28;19918;-64
2022/06/08 01:16:05;;;;;;;;;;;;;;;;;;4955889;28;19924;-64
2022/06/08 01:18:31;;;;;;;;;;;;;;;;;;4955646;28;20290;-64
2022/06/08 01:20:56;;;;;;;;;;;;;;;;;;4957214;28;19949;-64
2022/06/08 01:23:30;;;;;;;;;;;;;;;;;;4955526;28;20036;-64
2022/06/08 01:25:55;;;;;;;;;;;;;;;;;;4968223;28;19936;-64
2022/06/08 01:28:20;;;;;;;;;;;;;;;;;;4972974;28;19917;-64
2022/06/08 01:30:46;;;;;;;;;;;;;;;;;;4969146;28;20402;-64
2022/06/08 01:33:11;;;;;;;;;;;;;;;;;;4972291;28;19924;-64
2022/06/08 01:35:37;;;;;;;;;;;;;;;;;;4954341;28;19918;-64
2022/06/08 01:38:02;;;;;;;;;;;;;;;;;;4956868;28;19925;-64
2022/06/08 01:40:28;;;;;;;;;;;;;;;;;;4975414;28;20381;-63
2022/06/08 01:42:53;;;;;;;;;;;;;;;;;;4953140;28;20373;-64
2022/06/08 01:45:33;;;;;;;;;;;;;;;;;;4977383;28;19923;-64
2022/06/08 01:47:58;;;;;;;;;;;;;;;;;;4971675;28;19932;-63
2022/06/08 01:50:23;;;;;;;;;;;;;;;;;;4972871;28;21242;-63
2022/06/08 01:52:48;;;;;;;;;;;;;;;;;;4976962;28;20286;-63
2022/06/08 01:55:15;;;;;;;;;;;;;;;;;;4960443;28;19964;-63
2022/06/08 01:57:40;;;;;;;;;;;;;;;;;;4978329;28;20016;-64
2022/06/08 02:00:05;;;;;;;;;;;;;;;;;;4957250;28;20294;-63
2022/06/08 02:02:44;;;;;;;;;;;;;;;;;;4972107;28;20058;-63
2022/06/08 02:05:09;;;;;;;;;;;;;;;;;;4975953;28;19925;-64
2022/06/08 02:07:35;;;;;;;;;;;;;;;;;;4952935;28;19926;-64
2022/06/08 02:10:00;;;;;;;;;;;;;;;;;;4966781;28;20008;-63
2022/06/08 02:12:25;;;;;;;;;;;;;;;;;;4970538;28;19928;-64
2022/06/08 02:14:51;;;;;;;;;;;;;;;;;;4954211;28;19967;-64
2022/06/08 02:17:17;;;;;;;;;;;;;;;;;;4975740;28;20614;-63
2022/06/08 02:19:42;;;;;;;;;;;;;;;;;;4970454;28;19917;-63
2022/06/08 02:22:10;;;;;;;;;;;;;;;;;;4974861;28;19960;-64
2022/06/08 02:24:36;;;;;;;;;;;;;;;;;;4969784;28;19975;-64
2022/06/08 02:27:03;;;;;;;;;;;;;;;;;;4958746;28;19925;-64
2022/06/08 02:29:28;;;;;;;;;;;;;;;;;;4961579;28;20571;-64
2022/06/08 02:31:53;;;;;;;;;;;;;;;;;;4968815;28;19922;-64
2022/06/08 02:34:28;;;;;;;;;;;;;;;;;;4974124;28;19922;-64
2022/06/08 02:36:53;;;;;;;;;;;;;;;;;;4977201;28;19973;-64
2022/06/08 02:39:18;;;;;;;;;;;;;;;;;;4970234;28;20432;-64
2022/06/08 02:41:44;;;;;;;;;;;;;;;;;;4975610;28;19956;-63
2022/06/08 02:44:09;;;;;;;;;;;;;;;;;;4938121;28;19918;-64
2022/06/08 02:46:35;;;;;;;;;;;;;;;;;;4958238;28;19922;-64
2022/06/08 02:49:00;;;;;;;;;;;;;;;;;;4963555;28;19932;-64
2022/06/08 02:51:25;;;;;;;;;;;;;;;;;;4971043;28;20047;-63
2022/06/08 02:53:51;;;;;;;;;;;;;;;;;;4963095;28;19924;-64
2022/06/08 02:56:16;;;;;;;;;;;;;;;;;;4969843;28;19917;-63
2022/06/08 02:58:41;;;;;;;;;;;;;;;;;;4955571;28;20400;-63
2022/06/08 03:01:08;;;;;;;;;;;;;;;;;;4957856;28;19918;-63
2022/06/08 03:03:34;;;;;;;;;;;;;;;;;;4958858;28;19965;-63
2022/06/08 03:05:59;;;;;;;;;;;;;;;;;;4976288;28;20549;-63
2022/06/08 03:08:25;;;;;;;;;;;;;;;;;;4966891;28;20157;-62
2022/06/08 03:10:50;;;;;;;;;;;;;;;;;;4971489;28;19924;-63
2022/06/08 03:13:15;;;;;;;;;;;;;;;;;;4973960;28;19921;-63
2022/06/08 03:15:40;;;;;;;;;;;;;;;;;;4970764;28;19945;-63
2022/06/08 03:18:06;;;;;;;;;;;;;;;;;;4974999;28;19922;-63
2022/06/08 03:20:31;;;;;;;;;;;;;;;;;;4968397;28;19924;-63
2022/06/08 03:22:57;;;;;;;;;;;;;;;;;;4970006;28;19924;-64
2022/06/08 03:25:28;;;;;;;;;;;;;;;;;;4974423;28;19992;-64
2022/06/08 03:27:53;;;;;;;;;;;;;;;;;;4969309;28;20437;-63
2022/06/08 03:30:18;;;;;;;;;;;;;;;;;;4956300;28;19977;-63
2022/06/08 03:32:44;;;;;;;;;;;;;;;;;;4967940;28;20677;-63
2022/06/08 03:35:10;;;;;;;;;;;;;;;;;;4965570;28;20024;-63
2022/06/08 03:37:37;;;;;;;;;;;;;;;;;;4965877;28;19917;-64
2022/06/08 03:40:04;;;;;;;;;;;;;;;;;;4967934;28;20396;-63
2022/06/08 03:42:29;;;;;;;;;;;;;;;;;;4973903;28;20421;-63
2022/06/08 03:44:54;;;;;;;;;;;;;;;;;;4969908;28;19989;-63
2022/06/08 03:47:20;;;;;;;;;;;;;;;;;;4968574;28;19994;-63
2022/06/08 03:49:46;;;;;;;;;;;;;;;;;;4974742;28;19918;-63
2022/06/08 03:52:11;;;;;;;;;;;;;;;;;;4954482;28;19929;-63
2022/06/08 03:54:37;;;;;;;;;;;;;;;;;;4963358;28;19918;-63
2022/06/08 03:57:03;;;;;;;;;;;;;;;;;;4970853;28;19918;-64
2022/06/08 03:59:28;;;;;;;;;;;;;;;;;;4952448;28;20386;-64
2022/06/08 04:01:57;;;;;;;;;;;;;;;;;;4975613;28;20370;-63
2022/06/08 04:04:22;;;;;;;;;;;;;;;;;;4969903;28;19972;-64
2022/06/08 04:06:49;;;;;;;;;;;;;;;;;;4975078;28;19933;-63
2022/06/08 04:09:15;;;;;;;;;;;;;;;;;;4958177;28;19926;-63
2022/06/08 04:11:40;;;;;;;;;;;;;;;;;;4969050;28;19980;-63
2022/06/08 04:14:06;;;;;;;;;;;;;;;;;;4957221;28;19918;-62
2022/06/08 04:16:31;;;;;;;;;;;;;;;;;;4968380;28;19925;-63
2022/06/08 04:19:01;;;;;;;;;;;;;;;;;;4973976;28;19926;-63
2022/06/08 04:21:30;;;;;;;;;;;;;;;;;;4967438;28;20215;-63
2022/06/08 04:24:04;;;;;;;;;;;;;;;;;;4968397;28;20327;-64
2022/06/08 04:26:30;;;;;;;;;;;;;;;;;;4975456;28;19928;-62
2022/06/08 04:29:03;;;;;;;;;;;;;;;;;;4968545;28;20513;-63
2022/06/08 04:31:32;;;;;;;;;;;;;;;;;;4967295;28;19930;-64
2022/06/08 04:34:01;;;;;;;;;;;;;;;;;;4972709;28;19953;-63
2022/06/08 04:36:31;;;;;;;;;;;;;;;;;;4970214;28;20061;-63
2022/06/08 04:38:57;;;;;;;;;;;;;;;;;;4974501;28;19928;-63
2022/06/08 04:41:23;;;;;;;;;;;;;;;;;;4950745;28;20405;-63
2022/06/08 04:43:50;;;;;;;;;;;;;;;;;;4953952;28;19941;-63
2022/06/08 04:46:16;;;;;;;;;;;;;;;;;;4959386;28;19926;-63
2022/06/08 04:48:44;;;;;;;;;;;;;;;;;;4950455;28;19921;-64
2022/06/08 04:51:10;;;;;;;;;;;;;;;;;;4963361;28;19999;-64
2022/06/08 04:53:35;;;;;;;;;;;;;;;;;;4955129;28;20021;-63
2022/06/08 04:56:01;;;;;;;;;;;;;;;;;;4967773;28;19917;-63
2022/06/08 04:58:26;;;;;;;;;;;;;;;;;;4960626;28;19925;-63
2022/06/08 05:00:53;;;;;;;;;;;;;;;;;;4966202;28;20274;-63
2022/06/08 05:03:18;;;;;;;;;;;;;;;;;;4975043;28;19933;-63
2022/06/08 05:05:43;;;;;;;;;;;;;;;;;;4967145;28;20383;-63
2022/06/08 05:08:20;;;;;;;;;;;;;;;;;;4964109;28;20433;-63
2022/06/08 05:10:49;;;;;;;;;;;;;;;;;;4961634;28;20361;-64
2022/06/08 05:13:17;;;;;;;;;;;;;;;;;;4967709;28;20009;-64
2022/06/08 05:15:44;;;;;;;;;;;;;;;;;;4949930;28;19924;-64
2022/06/08 05:18:09;;;;;;;;;;;;;;;;;;4964733;28;20459;-64
2022/06/08 05:20:36;;;;;;;;;;;;;;;;;;4971749;28;19949;-64
2022/06/08 05:23:02;;;;;;;;;;;;;;;;;;4976937;28;19997;-64
2022/06/08 05:25:28;;;;;;;;;;;;;;;;;;4969887;28;20048;-65
2022/06/08 05:27:53;;;;;;;;;;;;;;;;;;4970420;28;19944;-65
2022/06/08 05:30:19;;;;;;;;;;;;;;;;;;4978871;28;20338;-64
2022/06/08 05:32:44;;;;;;;;;;;;;;;;;;4971041;28;20021;-63
2022/06/08 05:35:09;;;;;;;;;;;;;;;;;;4976196;28;19965;-63
2022/06/08 05:37:35;;;;;;;;;;;;;;;;;;4971618;28;19924;-63
2022/06/08 05:40:00;;;;;;;;;;;;;;;;;;4957236;28;19918;-64
2022/06/08 05:42:27;;;;;;;;;;;;;;;;;;4976613;28;19928;-64
2022/06/08 05:44:52;;;;;;;;;;;;;;;;;;4953764;28;19918;-63
2022/06/08 05:47:18;;;;;;;;;;;;;;;;;;4976606;28;20227;-63
2022/06/08 05:49:43;;;;;;;;;;;;;;;;;;4970665;28;19922;-64
2022/06/08 05:52:09;;;;;;;;;;;;;;;;;;4973713;28;20029;-64
2022/06/08 05:54:35;;;;;;;;;;;;;;;;;;4978797;28;19973;-64
2022/06/08 05:57:00;;;;;;;;;;;;;;;;;;4973724;28;19953;-63
2022/06/08 05:59:29;;;;;;;;;;;;;;;;;;4967972;28;19932;-63
2022/06/08 06:01:54;;;;;;;;;;;;;;;;;;4919745;28;19917;-63
2022/06/08 06:04:20;;;;;;;;;;;;;;;;;;4950339;28;19918;-63
2022/06/08 06:06:48;;;;;;;;;;;;;;;;;;4977001;28;19926;-63
2022/06/08 06:09:16;;;;;;;;;;;;;;;;;;4972051;28;19928;-63
2022/06/08 06:11:41;;;;;;;;;;;;;;;;;;4977825;28;19917;-63
2022/06/08 06:14:06;;;;;;;;;;;;;;;;;;4970521;28;19972;-63
2022/06/08 06:16:33;;;;;;;;;;;;;;;;;;4970505;28;19918;-63
2022/06/08 06:18:58;;;;;;;;;;;;;;;;;;4976942;28;19972;-62
2022/06/08 06:21:28;;;;;;;;;;;;;;;;;;4955798;28;19991;-63
2022/06/08 06:24:12;;;;;;;;;;;;;;;;;;4975322;28;19972;-64
2022/06/08 06:26:46;;;;;;;;;;;;;;;;;;4977030;28;20045;-63
2022/06/08 06:29:51;;;;;;;;;;;;;;;;;;4972822;28;19976;-64
2022/06/08 06:32:48;;;;;;;;;;;;;;;;;;4939862;28;19949;-63
2022/06/08 06:35:14;;;;;;;;;;;;;;;;;;4976959;28;19921;-65
2022/06/08 06:37:40;;;;;;;;;;;;;;;;;;4957771;28;20290;-66
2022/06/08 06:40:07;;;;;;;;;;;;;;;;;;4980421;28;20484;-65
2022/06/08 06:42:33;;;;;;;;;;;;;;;;;;4974726;28;19917;-65
2022/06/08 06:45:24;;;;;;;;;;;;;;;;;;4954990;28;20371;-65
2022/06/08 06:47:56;;;;;;;;;;;;;;;;;;4957642;28;20004;-65
2022/06/08 06:50:25;;;;;;;;;;;;;;;;;;4955407;28;19922;-64
2022/06/08 06:52:52;;;;;;;;;;;;;;;;;;4952832;28;19921;-65
2022/06/08 06:55:18;;;;;;;;;;;;;;;;;;4973954;28;20534;-65
2022/06/08 06:57:44;;;;;;;;;;;;;;;;;;4971681;28;20338;-65
2022/06/08 07:00:10;;;;;;;;;;;;;;;;;;4974606;28;19929;-65
2022/06/08 07:02:36;;;;;;;;;;;;;;;;;;4967335;28;19918;-65
2022/06/08 07:05:01;;;;;;;;;;;;;;;;;;4953765;28;19952;-66
2022/06/08 07:07:26;;;;;;;;;;;;;;;;;;4972532;28;19928;-65
2022/06/08 07:09:51;;;;;;;;;;;;;;;;;;4964914;28;19933;-65
2022/06/08 07:12:17;;;;;;;;;;;;;;;;;;4962795;28;20295;-66
2022/06/08 07:14:47;;;;;;;;;;;;;;;;;;4956324;28;19961;-64
2022/06/08 07:17:15;;;;;;;;;;;;;;;;;;4972389;28;19952;-65
2022/06/08 07:19:43;;;;;;;;;;;;;;;;;;4958165;28;19960;-65
2022/06/08 07:22:10;;;;;;;;;;;;;;;;;;4973167;28;19929;-66
2022/06/08 07:24:36;;;;;;;;;;;;;;;;;;4971428;28;20017;-66
2022/06/08 07:27:01;;;;;;;;;;;;;;;;;;4968490;28;19922;-66
2022/06/08 07:29:27;;;;;;;;;;;;;;;;;;4968808;28;20399;-64
2022/06/08 07:31:53;;;;;;;;;;;;;;;;;;4973608;28;19917;-66
2022/06/08 07:34:19;;;;;;;;;;;;;;;;;;4957314;28;19921;-65
2022/06/08 07:36:45;;;;;;;;;;;;;;;;;;4976926;28;20007;-66
2022/06/08 07:39:10;;;;;;;;;;;;;;;;;;4967113;28;20013;-66
2022/06/08 07:41:36;;;;;;;;;;;;;;;;;;4954311;28;19968;-65
2022/06/08 07:44:02;;;;;;;;;;;;;;;;;;4978759;28;19917;-66
2022/06/08 07:46:32;;;;;;;;;;;;;;;;;;4970613;28;19922;-66
2022/06/08 07:51:41;;;;;;;;;;;;;;;;;;4974855;28;20080;-66
2022/06/08 07:54:06;;;;;;;;;;;;;;;;;;4970055;28;20568;-66
2022/06/08 07:56:31;;;;;;;;;;;;;;;;;;4962147;28;19995;-66
2022/06/08 07:58:57;;;;;;;;;;;;;;;;;;4967703;28;20370;-66
2022/06/08 08:01:22;;;;;;;;;;;;;;;;;;4957575;28;20355;-66
2022/06/08 08:03:47;;;;;;;;;;;;;;;;;;4963593;28;20285;-65
2022/06/08 08:06:12;;;;;;;;;;;;;;;;;;4947676;28;20389;-65
2022/06/08 08:08:38;;;;;;;;;;;;;;;;;;4952575;28;20017;-66
2022/06/08 08:11:03;;;;;;;;;;;;;;;;;;4971440;28;19913;-65
2022/06/08 08:13:29;;;;;;;;;;;;;;;;;;4952703;28;20273;-66
2022/06/08 08:15:54;;;;;;;;;;;;;;;;;;4970093;28;19918;-65
2022/06/08 08:18:19;;;;;;;;;;;;;;;;;;4967672;28;19921;-65
2022/06/08 08:20:46;;;;;;;;;;;;;;;;;;4938769;28;19918;-66
2022/06/08 08:23:11;;;;;;;;;;;;;;;;;;4966184;28;19941;-65
2022/06/08 08:25:36;;;;;;;;;;;;;;;;;;4958159;28;20337;-65
2022/06/08 08:28:02;;;;;;;;;;;;;;;;;;4963612;28;20445;-65
2022/06/08 08:30:28;;;;;;;;;;;;;;;;;;4966541;28;19922;-66
2022/06/08 08:32:53;;;;;;;;;;;;;;;;;;4973783;28;19918;-65
2022/06/08 08:35:21;;;;;;;;;;;;;;;;;;4968505;28;19918;-65
2022/06/08 08:37:46;;;;;;;;;;;;;;;;;;4969519;28;19922;-66
2022/06/08 08:40:11;;;;;;;;;;;;;;;;;;4973132;28;19918;-66
2022/06/08 08:42:36;;;;;;;;;;;;;;;;;;4966054;28;19940;-66
2022/06/08 08:45:01;;;;;;;;;;;;;;;;;;4974142;28;19918;-66
2022/06/08 08:47:27;;;;;;;;;;;;;;;;;;4973577;28;20454;-66
2022/06/08 08:49:54;;;;;;;;;;;;;;;;;;4970025;28;23097;-66
2022/06/08 08:52:19;;;;;;;;;;;;;;;;;;4981501;28;19965;-66
2022/06/08 08:54:45;;;;;;;;;;;;;;;;;;4975556;28;20211;-66
2022/06/08 08:57:10;;;;;;;;;;;;;;;;;;4980896;28;19922;-65
2022/06/08 08:59:36;;;;;;;;;;;;;;;;;;4969655;28;19918;-66
2022/06/08 09:02:01;;;;;;;;;;;;;;;;;;4977487;28;19918;-66
2022/06/08 09:04:26;;;;;;;;;;;;;;;;;;4979679;28;19914;-65
2022/06/08 09:06:51;;;;;;;;;;;;;;;;;;4977599;28;20020;-64
2022/06/08 09:09:17;;;;;;;;;;;;;;;;;;4981425;28;19921;-65
2022/06/08 09:11:42;;;;;;;;;;;;;;;;;;4962750;28;20342;-65
2022/06/08 09:14:07;;;;;;;;;;;;;;;;;;4975447;28;20396;-64
2022/06/08 09:16:36;;;;;;;;;;;;;;;;;;4968776;28;19917;-65
2022/06/08 09:19:01;;;;;;;;;;;;;;;;;;4976100;28;19972;-64
2022/06/08 09:21:26;;;;;;;;;;;;;;;;;;4982015;28;19921;-65
2022/06/08 09:23:51;;;;;;;;;;;;;;;;;;4973861;28;19918;-64
2022/06/08 09:26:16;;;;;;;;;;;;;;;;;;4975318;28;20198;-64
2022/06/08 09:28:42;;;;;;;;;;;;;;;;;;4978143;28;19929;-64
2022/06/08 09:31:07;;;;;;;;;;;;;;;;;;4977046;28;19918;-67
2022/06/08 09:33:32;;;;;;;;;;;;;;;;;;4980197;28;20012;-65
2022/06/08 09:35:59;;;;;;;;;;;;;;;;;;4959855;28;20217;-65
2022/06/08 09:38:25;;;;;;;;;;;;;;;;;;4976234;28;20638;-66
2022/06/08 09:40:50;;;;;;;;;;;;;;;;;;4979654;28;19968;-63
2022/06/08 09:43:17;;;;;;;;;;;;;;;;;;4977178;28;20450;-65
2022/06/08 09:45:43;;;;;;;;;;;;;;;;;;4981244;28;19918;-64
2022/06/08 09:53:37;;;;;;;;;;;;;;;;;;4980760;28;20413;-66
2022/06/08 09:56:02;;;;;;;;;;;;;;;;;;4970556;28;19925;-65
2022/06/08 09:58:27;;;;;;;;;;;;;;;;;;4962678;28;20335;-64
2022/06/08 10:00:52;;;;;;;;;;;;;;;;;;4982964;28;19918;-65
2022/06/08 10:03:18;;;;;;;;;;;;;;;;;;4962508;28;20389;-65
2022/06/08 10:05:43;;;;;;;;;;;;;;;;;;4973897;28;19922;-66
2022/06/08 10:08:08;;;;;;;;;;;;;;;;;;4954886;28;19985;-65
2022/06/08 10:10:33;;;;;;;;;;;;;;;;;;4968929;28;19918;-65
2022/06/08 10:12:59;;;;;;;;;;;;;;;;;;4976981;28;19918;-65
2022/06/08 10:15:24;;;;;;;;;;;;;;;;;;4969640;28;20386;-65
2022/06/08 10:17:50;;;;;;;;;;;;;;;;;;4976266;28;19922;-64
2022/06/08 10:20:15;;;;;;;;;;;;;;;;;;4951162;28;19922;-64
2022/06/08 10:22:42;;;;;;;;;;;;;;;;;;4948567;28;19997;-65
2022/06/08 10:25:07;;;;;;;;;;;;;;;;;;4976528;28;20418;-68
2022/06/08 10:27:33;;;;;;;;;;;;;;;;;;4971242;28;19952;-67
2022/06/08 10:29:58;;;;;;;;;;;;;;;;;;4974714;28;20275;-65
2022/06/08 10:32:24;;;;;;;;;;;;;;;;;;4970640;28;19922;-65
2022/06/08 10:34:54;;;;;;;;;;;;;;;;;;4966543;28;19917;-65
2022/06/08 10:37:19;;;;;;;;;;;;;;;;;;4979040;28;19928;-66
2022/06/08 10:39:44;;;;;;;;;;;;;;;;;;4971441;28;19922;-65
2022/06/08 10:44:53;;;;;;;;;;;;;;;;;;4974517;28;19949;-66
2022/06/08 10:47:21;;;;;;;;;;;;;;;;;;4972088;28;19926;-65
2022/06/08 10:49:46;;;;;;;;;;;;;;;;;;4977049;28;20310;-65
2022/06/08 10:52:11;;;;;;;;;;;;;;;;;;4973190;28;19914;-65
2022/06/08 10:54:55;;;;;;;;;;;;;;;;;;4973658;28;19921;-65
2022/06/08 10:57:23;;;;;;;;;;;;;;;;;;4958326;28;20377;-66
2022/06/08 10:59:49;;;;;;;;;;;;;;;;;;4967489;28;19921;-66
2022/06/08 11:02:16;;;;;;;;;;;;;;;;;;4973695;28;20396;-65
2022/06/08 11:04:43;;;;;;;;;;;;;;;;;;4969701;28;20485;-66
2022/06/08 11:07:10;;;;;;;;;;;;;;;;;;4970475;28;19926;-65
2022/06/08 11:09:39;;;;;;;;;;;;;;;;;;4972893;28;19949;-66
2022/06/08 11:12:05;;;;;;;;;;;;;;;;;;4946402;28;19918;-65
2022/06/08 11:14:30;;;;;;;;;;;;;;;;;;4966700;28;19924;-66
2022/06/08 11:16:55;;;;;;;;;;;;;;;;;;4962202;28;19918;-66
2022/06/08 11:19:20;;;;;;;;;;;;;;;;;;4960245;28;20473;-66
2022/06/08 11:21:46;;;;;;;;;;;;;;;;;;4952494;28;20349;-66
2022/06/08 11:24:11;;;;;;;;;;;;;;;;;;4946095;28;20145;-67
2022/06/08 11:26:36;;;;;;;;;;;;;;;;;;4965109;28;20048;-66
2022/06/08 11:29:02;;;;;;;;;;;;;;;;;;4960270;28;19921;-66
2022/06/08 11:31:27;;;;;;;;;;;;;;;;;;4961609;28;19921;-66
2022/06/08 11:33:52;;;;;;;;;;;;;;;;;;4954843;28;20283;-66
2022/06/08 11:36:17;;;;;;;;;;;;;;;;;;4964952;28;20278;-66
2022/06/08 11:38:43;;;;;;;;;;;;;;;;;;4968543;28;20158;-66
2022/06/08 11:41:08;;;;;;;;;;;;;;;;;;4946833;28;19981;-66
2022/06/08 11:43:33;;;;;;;;;;;;;;;;;;4941381;28;19922;-66
2022/06/08 11:46:00;;;;;;;;;;;;;;;;;;4933037;28;19917;-66
2022/06/08 11:48:26;;;;;;;;;;;;;;;;;;4947389;28;19928;-67
2022/06/08 11:50:51;;;;;;;;;;;;;;;;;;4953305;28;19918;-66
2022/06/08 11:53:17;;;;;;;;;;;;;;;;;;4950480;28;19918;-69
2022/06/08 11:55:42;;;;;;;;;;;;;;;;;;4970351;28;20013;-67
2022/06/08 11:58:08;;;;;;;;;;;;;;;;;;4965615;28;19925;-67
2022/06/08 12:00:34;;;;;;;;;;;;;;;;;;4969953;28;19930;-67
2022/06/08 12:02:59;;;;;;;;;;;;;;;;;;4965328;28;19990;-67
2022/06/08 12:05:24;;;;;;;;;;;;;;;;;;4969346;28;19918;-68
2022/06/08 12:07:50;;;;;;;;;;;;;;;;;;4972492;28;19934;-67
2022/06/08 12:10:15;;;;;;;;;;;;;;;;;;4975796;28;20713;-67
2022/06/08 12:12:40;;;;;;;;;;;;;;;;;;4973121;28;19975;-67
2022/06/08 12:15:06;;;;;;;;;;;;;;;;;;4977461;28;19926;-66
2022/06/08 12:17:31;;;;;;;;;;;;;;;;;;4972035;28;19917;-66
2022/06/08 12:19:57;;;;;;;;;;;;;;;;;;4957931;28;19925;-68
2022/06/08 12:22:22;;;;;;;;;;;;;;;;;;4977146;28;19925;-68
2022/06/08 12:24:47;;;;;;;;;;;;;;;;;;4969990;28;19918;-68
2022/06/08 12:27:13;;;;;;;;;;;;;;;;;;4973074;28;19921;-68
2022/06/08 12:29:38;;;;;;;;;;;;;;;;;;4967913;28;19925;-67
2022/06/08 12:32:03;;;;;;;;;;;;;;;;;;4971047;28;19968;-65
2022/06/08 12:34:29;;;;;;;;;;;;;;;;;;4952853;28;20124;-67
2022/06/08 12:36:55;;;;;;;;;;;;;;;;;;4958148;28;19918;-67
2022/06/08 12:39:20;;;;;;;;;;;;;;;;;;4971787;28;19933;-67
2022/06/08 12:41:45;;;;;;;;;;;;;;;;;;4971647;28;19913;-67
2022/06/08 12:44:10;;;;;;;;;;;;;;;;;;4970318;28;20383;-68
2022/06/08 12:46:36;;;;;;;;;;;;;;;;;;4976386;28;19926;-68
2022/06/08 12:49:01;;;;;;;;;;;;;;;;;;4970433;28;20305;-69
2022/06/08 12:51:26;;;;;;;;;;;;;;;;;;4973495;28;19989;-68
2022/06/08 12:53:51;;;;;;;;;;;;;;;;;;4955405;28;20273;-68
2022/06/08 12:56:18;;;;;;;;;;;;;;;;;;4971462;28;19917;-68
2022/06/08 12:58:43;;;;;;;;;;;;;;;;;;4975699;28;19917;-67
2022/06/08 13:01:09;;;;;;;;;;;;;;;;;;4971944;28;19924;-68
2022/06/08 13:03:34;;;;;;;;;;;;;;;;;;4970863;28;19918;-66
2022/06/08 13:06:00;;;;;;;;;;;;;;;;;;4975723;28;19928;-66
2022/06/08 13:08:25;;;;;;;;;;;;;;;;;;4969976;28;19926;-67
2022/06/08 13:10:50;;;;;;;;;;;;;;;;;;4977180;28;19965;-67
2022/06/08 13:13:16;;;;;;;;;;;;;;;;;;4968189;28;19933;-67
2022/06/08 13:15:42;;;;;;;;;;;;;;;;;;4968107;28;20036;-65
2022/06/08 13:18:07;;;;;;;;;;;;;;;;;;4975568;28;19918;-66
2022/06/08 13:20:32;;;;;;;;;;;;;;;;;;4969287;28;19932;-66
2022/06/08 13:22:58;;;;;;;;;;;;;;;;;;4974769;28;19918;-66
2022/06/08 13:25:23;;;;;;;;;;;;;;;;;;4968300;28;19949;-66
2022/06/08 13:27:50;;;;;;;;;;;;;;;;;;4956538;28;20329;-65
2022/06/08 13:30:15;;;;;;;;;;;;;;;;;;4975723;28;19917;-66
2022/06/08 13:32:40;;;;;;;;;;;;;;;;;;4968254;28;19988;-66
2022/06/08 13:35:06;;;;;;;;;;;;;;;;;;4974421;28;19918;-66
2022/06/08 13:37:31;;;;;;;;;;;;;;;;;;4968401;28;20730;-66
2022/06/08 13:39:57;;;;;;;;;;;;;;;;;;4973990;28;20097;-66
2022/06/08 13:42:23;;;;;;;;;;;;;;;;;;4979840;28;19917;-66
2022/06/08 13:44:48;;;;;;;;;;;;;;;;;;4976038;28;19928;-66
2022/06/08 13:47:13;;;;;;;;;;;;;;;;;;4977199;28;20103;-66
2022/06/08 13:49:39;;;;;;;;;;;;;;;;;;4972780;28;19976;-67
2022/06/08 13:52:04;;;;;;;;;;;;;;;;;;4975007;28;20369;-68
2022/06/08 13:54:29;;;;;;;;;;;;;;;;;;4960435;28;20068;-67
2022/06/08 13:56:55;;;;;;;;;;;;;;;;;;4974090;28;20224;-67
2022/06/08 13:59:20;;;;;;;;;;;;;;;;;;4979319;28;19992;-67
2022/06/08 14:01:46;;;;;;;;;;;;;;;;;;4969520;28;19925;-66
2022/06/08 14:04:12;;;;;;;;;;;;;;;;;;4977270;28;20346;-67
2022/06/08 14:14:48;;;;;;;;;;;;;;;;;;4979734;28;19921;-66
2022/06/08 14:17:13;;;;;;;;;;;;;;;;;;4957863;28;19926;-66
2022/06/08 14:19:39;;;;;;;;;;;;;;;;;;4981124;28;20390;-66
2022/06/08 14:22:04;;;;;;;;;;;;;;;;;;4976103;28;19924;-66
2022/06/08 14:24:29;;;;;;;;;;;;;;;;;;4973921;28;20397;-66
2022/06/08 14:26:55;;;;;;;;;;;;;;;;;;4967183;28;20036;-67
2022/06/08 14:29:20;;;;;;;;;;;;;;;;;;4972140;28;19921;-67
2022/06/08 14:31:45;;;;;;;;;;;;;;;;;;4977314;28;19968;-66
2022/06/08 14:34:10;;;;;;;;;;;;;;;;;;4972277;28;19953;-67
2022/06/08 14:36:35;;;;;;;;;;;;;;;;;;4973456;28;20566;-66
2022/06/08 14:39:01;;;;;;;;;;;;;;;;;;4979290;28;19926;-66
2022/06/08 14:41:37;;;;;;;;;;;;;;;;;;4974106;28;19918;-67
2022/06/08 14:44:02;;;;;;;;;;;;;;;;;;4975304;28;19924;-67
2022/06/08 14:46:28;;;;;;;;;;;;;;;;;;4957722;28;19933;-67
2022/06/08 14:48:53;;;;;;;;;;;;;;;;;;4969599;28;20012;-67
2022/06/08 14:51:21;;;;;;;;;;;;;;;;;;4979902;28;19917;-67
2022/06/08 14:53:46;;;;;;;;;;;;;;;;;;4973897;28;19981;-66
2022/06/08 14:56:24;;;;;;;;;;;;;;;;;;4977803;28;19918;-66
2022/06/08 14:58:51;;;;;;;;;;;;;;;;;;4955394;28;19921;-65
2022/06/08 15:01:16;;;;;;;;;;;;;;;;;;4971820;28;19918;-65
2022/06/08 15:03:42;;;;;;;;;;;;;;;;;;4976543;28;20311;-66
2022/06/08 15:06:07;;;;;;;;;;;;;;;;;;4973562;28;19918;-65
2022/06/08 15:08:32;;;;;;;;;;;;;;;;;;4975178;28;19925;-65
2022/06/08 15:13:42;;;;;;;;;;;;;;;;;;4974131;28;19926;-66
2022/06/08 15:16:07;;;;;;;;;;;;;;;;;;4978671;28;19925;-66
2022/06/08 15:18:32;;;;;;;;;;;;;;;;;;4970517;28;19925;-65
2022/06/08 15:20:59;;;;;;;;;;;;;;;;;;4956276;28;19922;-65
2022/06/08 15:23:24;;;;;;;;;;;;;;;;;;4979070;28;19918;-64
2022/06/08 15:25:49;;;;;;;;;;;;;;;;;;4972006;28;19922;-64
2022/06/08 15:28:15;;;;;;;;;;;;;;;;;;4973907;28;19926;-65
2022/06/08 15:30:41;;;;;;;;;;;;;;;;;;4956959;28;19930;-63
2022/06/08 15:33:06;;;;;;;;;;;;;;;;;;4968300;28;20445;-62
2022/06/08 15:35:32;;;;;;;;;;;;;;;;;;4974792;28;19921;-60
2022/06/08 15:37:57;;;;;;;;;;;;;;;;;;4969939;28;19918;-63
2022/06/08 15:40:22;;;;;;;;;;;;;;;;;;4955775;28;20007;-60
2022/06/08 15:42:47;;;;;;;;;;;;;;;;;;4972153;28;19948;-61
2022/06/08 15:45:14;;;;;;;;;;;;;;;;;;4970833;28;20507;-61
2022/06/08 15:47:40;;;;;;;;;;;;;;;;;;4963943;28;19925;-61
2022/06/08 15:50:05;;;;;;;;;;;;;;;;;;4956860;28;19926;-61
2022/06/08 15:52:30;;;;;;;;;;;;;;;;;;4973444;28;19917;-62
2022/06/08 15:54:55;;;;;;;;;;;;;;;;;;4969435;28;19914;-62
2022/06/08 15:57:20;;;;;;;;;;;;;;;;;;4970128;28;20184;-62
2022/06/08 15:59:46;;;;;;;;;;;;;;;;;;4977808;28;19964;-62
2022/06/08 16:02:11;;;;;;;;;;;;;;;;;;4968636;28;19968;-61
2022/06/08 16:04:36;;;;;;;;;;;;;;;;;;4973509;28;19925;-61
2022/06/08 16:07:01;;;;;;;;;;;;;;;;;;4972498;28;19973;-61
2022/06/08 16:09:27;;;;;;;;;;;;;;;;;;4967838;28;19968;-61
2022/06/08 16:11:53;;;;;;;;;;;;;;;;;;4976473;28;20311;-61
2022/06/08 16:14:18;;;;;;;;;;;;;;;;;;4969658;28;20254;-61
2022/06/08 16:16:43;;;;;;;;;;;;;;;;;;4974256;28;19917;-60
2022/06/08 16:19:08;;;;;;;;;;;;;;;;;;4970360;28;19918;-61
2022/06/08 16:21:33;;;;;;;;;;;;;;;;;;4970549;28;19917;-62
2022/06/08 16:23:59;;;;;;;;;;;;;;;;;;4971355;28;20499;-61
2022/06/08 16:26:24;;;;;;;;;;;;;;;;;;4937073;28;20347;-62
2022/06/08 16:28:49;;;;;;;;;;;;;;;;;;4974120;28;20384;-62
2022/06/08 16:31:15;;;;;;;;;;;;;;;;;;4966108;28;19957;-62
2022/06/08 16:33:40;;;;;;;;;;;;;;;;;;4966948;28;19914;-62
2022/06/08 16:36:05;;;;;;;;;;;;;;;;;;4975212;28;19917;-60
2022/06/08 16:38:31;;;;;;;;;;;;;;;;;;4965216;28;20038;-62
2022/06/08 16:40:56;;;;;;;;;;;;;;;;;;4959205;28;19914;-60
2022/06/08 16:43:22;;;;;;;;;;;;;;;;;;4967544;28;19968;-59
2022/06/08 16:45:48;;;;;;;;;;;;;;;;;;4968281;28;20028;-63
2022/06/08 16:48:13;;;;;;;;;;;;;;;;;;4973351;28;19968;-59
2022/06/08 16:50:38;;;;;;;;;;;;;;;;;;4950561;28;20291;-59
2022/06/08 16:53:03;;;;;;;;;;;;;;;;;;4973153;28;19922;-59
2022/06/08 16:55:29;;;;;;;;;;;;;;;;;;4968838;28;19930;-59
2022/06/08 17:00:39;;;;;;;;;;;;;;;;;;4970146;28;19918;-59
2022/06/08 17:03:04;;;;;;;;;;;;;;;;;;4966543;28;19918;-59